createdAt,value
2023-03-29T00:01:07.348Z,9.36
2023-03-29T00:03:42.525Z,9.44
2023-03-29T00:06:22.262Z,9.48
2023-03-29T00:08:56.279Z,9.19
2023-03-29T00:11:29.077Z,9.38
2023-03-29T00:14:02.073Z,9.35
2023-03-29T00:16:35.448Z,9.33
2023-03-29T00:19:08.305Z,9.30
2023-03-29T00:21:41.312Z,9.40
2023-03-29T00:24:15.890Z,9.42
2023-03-29T00:26:48.897Z,9.49
2023-03-29T00:29:21.984Z,9.42
2023-03-29T00:31:56.171Z,9.51
2023-03-29T00:34:31.395Z,9.52
2023-03-29T00:37:08.857Z,9.54
2023-03-29T00:39:44.740Z,9.36
2023-03-29T00:42:18.628Z,9.53
2023-03-29T00:44:58.666Z,9.57
2023-03-29T00:47:36.698Z,9.42
2023-03-29T00:50:15.829Z,9.46
2023-03-29T00:52:54.310Z,9.47
2023-03-29T00:55:32.989Z,9.52
2023-03-29T00:58:08.161Z,9.46
2023-03-29T01:00:48.631Z,9.56
2023-03-29T01:03:27.428Z,9.49
2023-03-29T01:06:07.948Z,9.48
2023-03-29T01:08:46.006Z,9.53
2023-03-29T01:11:29.060Z,9.59
2023-03-29T01:14:06.845Z,9.57
2023-03-29T01:16:40.658Z,9.55
2023-03-29T01:19:19.419Z,9.59
2023-03-29T01:22:02.065Z,9.50
2023-03-29T01:24:47.542Z,9.58
2023-03-29T01:27:34.083Z,9.56
2023-03-29T01:30:12.384Z,9.66
2023-03-29T01:32:51.161Z,9.61
2023-03-29T01:35:32.660Z,9.66
2023-03-29T01:38:10.885Z,9.67
2023-03-29T01:40:44.117Z,9.58
2023-03-29T01:43:26.701Z,9.60
2023-03-29T01:46:04.172Z,9.60
2023-03-29T01:48:45.602Z,9.65
2023-03-29T01:51:25.618Z,9.64
2023-03-29T01:54:04.254Z,9.59
2023-03-29T01:56:41.656Z,9.69
2023-03-29T01:59:20.937Z,9.62
2023-03-29T02:01:59.641Z,9.67
2023-03-29T02:04:37.646Z,9.67
2023-03-29T02:07:11.625Z,9.76
2023-03-29T02:09:46.112Z,9.74
2023-03-29T02:12:20.599Z,9.64
2023-03-29T02:14:56.579Z,9.64
2023-03-29T02:17:29.482Z,9.67
2023-03-29T02:20:14.165Z,9.75
2023-03-29T02:22:53.239Z,9.69
2023-03-29T02:25:26.338Z,9.71
2023-03-29T02:27:59.840Z,9.71
2023-03-29T02:30:41.997Z,9.68
2023-03-29T02:33:18.371Z,9.69
2023-03-29T02:35:57.715Z,9.77
2023-03-29T02:38:31.518Z,9.70
2023-03-29T02:41:05.658Z,9.69
2023-03-29T02:43:40.714Z,9.67
2023-03-29T02:46:17.325Z,9.71
2023-03-29T02:48:52.941Z,9.76
2023-03-29T02:54:31.535Z,9.75
2023-03-29T02:57:07.021Z,9.71
2023-03-29T02:59:40.973Z,9.69
2023-03-29T03:02:17.596Z,9.80
2023-03-29T03:04:51.092Z,9.67
2023-03-29T03:07:24.937Z,9.69
2023-03-29T03:09:58.656Z,9.77
2023-03-29T03:12:31.717Z,9.76
2023-03-29T03:15:06.555Z,9.81
2023-03-29T03:17:41.718Z,9.79
2023-03-29T03:20:16.878Z,9.78
2023-03-29T03:22:50.474Z,9.80
2023-03-29T03:25:25.181Z,9.69
2023-03-29T03:27:58.499Z,9.82
2023-03-29T03:30:31.014Z,9.74
2023-03-29T03:33:31.143Z,9.71
2023-03-29T03:36:26.157Z,9.73
2023-03-29T03:38:59.761Z,9.79
2023-03-29T03:41:32.768Z,9.78
2023-03-29T03:44:06.390Z,9.80
2023-03-29T03:46:39.318Z,9.81
2023-03-29T03:49:13.454Z,9.73
2023-03-29T03:51:49.851Z,9.80
2023-03-29T03:54:25.204Z,9.78
2023-03-29T03:57:24.803Z,9.77
2023-03-29T03:59:58.969Z,9.80
2023-03-29T04:02:44.440Z,9.81
2023-03-29T04:05:19.924Z,9.80
2023-03-29T04:07:53.302Z,9.73
2023-03-29T04:10:56.175Z,9.77
2023-03-29T04:13:37.748Z,9.79
2023-03-29T04:16:30.330Z,9.83
2023-03-29T04:19:13.029Z,9.80
2023-03-29T04:21:49.488Z,9.86
2023-03-29T04:24:24.486Z,9.79
2023-03-29T04:27:17.257Z,9.88
2023-03-29T04:29:50.828Z,9.87
2023-03-29T04:32:44.104Z,9.81
2023-03-29T04:35:16.883Z,9.83
2023-03-29T04:37:54.640Z,9.85
2023-03-29T04:40:29.114Z,9.77
2023-03-29T04:43:09.240Z,9.83
2023-03-29T04:45:46.322Z,9.87
2023-03-29T04:48:32.245Z,9.85
2023-03-29T04:51:05.656Z,9.81
2023-03-29T04:53:41.352Z,9.85
2023-03-29T04:56:14.077Z,9.94
2023-03-29T04:59:12.669Z,9.88
2023-03-29T05:01:45.923Z,9.91
2023-03-29T05:04:19.270Z,9.90
2023-03-29T05:07:06.797Z,9.86
2023-03-29T05:09:41.615Z,9.85
2023-03-29T05:12:16.116Z,9.80
2023-03-29T05:14:59.005Z,9.83
2023-03-29T05:17:33.055Z,9.83
2023-03-29T05:20:13.197Z,9.84
2023-03-29T05:22:48.657Z,9.90
2023-03-29T05:25:43.868Z,9.80
2023-03-29T05:28:17.214Z,9.87
2023-03-29T05:31:00.990Z,9.92
2023-03-29T05:33:34.656Z,9.96
2023-03-29T05:36:11.026Z,9.95
2023-03-29T05:38:49.312Z,9.99
2023-03-29T05:41:24.797Z,10.06
2023-03-29T05:43:57.937Z,10.09
2023-03-29T05:46:31.845Z,10.06
2023-03-29T05:49:08.736Z,10.04
2023-03-29T05:52:00.956Z,10.05
2023-03-29T05:54:35.498Z,10.16
2023-03-29T05:57:10.241Z,10.17
2023-03-29T05:59:43.331Z,10.17
2023-03-29T06:02:18.719Z,10.26
2023-03-29T06:04:57.699Z,10.16
2023-03-29T06:07:32.063Z,10.22
2023-03-29T06:10:33.862Z,10.28
2023-03-29T06:13:22.339Z,10.28
2023-03-29T06:15:55.210Z,10.28
2023-03-29T06:18:31.081Z,10.30
2023-03-29T06:21:04.040Z,10.40
2023-03-29T06:23:37.900Z,10.43
2023-03-29T06:26:12.819Z,10.45
2023-03-29T06:28:49.813Z,10.48
2023-03-29T06:31:24.755Z,10.45
2023-03-29T06:33:59.415Z,10.53
2023-03-29T06:36:56.404Z,10.59
2023-03-29T06:39:29.979Z,10.60
2023-03-29T06:42:26.886Z,10.67
2023-03-29T06:45:17.948Z,10.68
2023-03-29T06:47:54.521Z,10.75
2023-03-29T06:50:27.388Z,10.76
2023-03-29T06:53:13.360Z,10.74
2023-03-29T06:55:47.780Z,10.79
2023-03-29T06:58:39.146Z,10.83
2023-03-29T07:01:27.049Z,10.83
2023-03-29T07:04:08.190Z,10.90
2023-03-29T07:07:02.507Z,10.90
2023-03-29T07:09:41.409Z,10.90
2023-03-29T07:12:40.909Z,10.95
2023-03-29T07:15:14.266Z,11.05
2023-03-29T07:18:08.053Z,11.08
2023-03-29T07:20:42.309Z,11.14
2023-03-29T07:23:15.401Z,11.19
2023-03-29T07:25:48.173Z,11.16
2023-03-29T07:28:21.392Z,11.19
2023-03-29T07:30:54.992Z,11.23
2023-03-29T07:33:30.454Z,11.37
2023-03-29T07:36:09.006Z,11.46
2023-03-29T07:38:42.081Z,11.50
2023-03-29T07:41:20.359Z,11.45
2023-03-29T07:44:04.939Z,11.52
2023-03-29T07:46:38.067Z,11.51
2023-03-29T07:49:12.213Z,11.56
2023-03-29T07:51:45.538Z,11.62
2023-03-29T07:54:19.803Z,11.60
2023-03-29T07:57:12.844Z,11.66
2023-03-29T07:59:48.800Z,11.73
2023-03-29T08:02:29.110Z,11.70
2023-03-29T08:05:10.014Z,11.74
2023-03-29T08:07:55.282Z,11.74
2023-03-29T08:10:39.446Z,11.82
2023-03-29T08:13:33.942Z,11.93
2023-03-29T08:16:30.020Z,11.95
2023-03-29T08:19:22.756Z,11.97
2023-03-29T08:22:07.036Z,12.09
2023-03-29T08:25:00.220Z,12.12
2023-03-29T08:27:39.585Z,12.14
2023-03-29T08:30:14.865Z,12.29
2023-03-29T08:32:50.465Z,12.27
2023-03-29T08:35:25.729Z,12.33
2023-03-29T08:38:21.757Z,12.44
2023-03-29T08:40:56.640Z,12.51
2023-03-29T08:44:02.023Z,12.47
2023-03-29T08:46:54.803Z,12.53
2023-03-29T08:49:42.938Z,12.62
2023-03-29T08:52:23.921Z,12.72
2023-03-29T08:55:01.568Z,12.71
2023-03-29T08:57:40.821Z,12.79
2023-03-29T09:00:23.032Z,12.81
2023-03-29T09:03:00.152Z,12.88
2023-03-29T09:05:38.924Z,12.87
2023-03-29T09:08:23.903Z,12.94
2023-03-29T09:11:29.262Z,12.91
2023-03-29T09:14:13.762Z,12.96
2023-03-29T09:16:56.676Z,13.04
2023-03-29T09:19:38.704Z,13.09
2023-03-29T09:22:20.609Z,13.16
2023-03-29T09:25:03.939Z,13.12
2023-03-29T09:27:45.965Z,13.15
2023-03-29T09:30:33.275Z,13.16
2023-03-29T09:33:14.699Z,13.20
2023-03-29T09:36:11.851Z,13.20
2023-03-29T09:38:49.742Z,13.22
2023-03-29T09:41:29.530Z,13.16
2023-03-29T09:44:12.711Z,13.24
2023-03-29T09:46:57.343Z,13.32
2023-03-29T09:49:42.203Z,13.36
2023-03-29T09:52:17.999Z,13.34
2023-03-29T09:54:59.862Z,13.44
2023-03-29T09:57:51.113Z,13.50
2023-03-29T10:00:26.683Z,13.51
2023-03-29T10:03:00.543Z,13.50
2023-03-29T10:05:48.196Z,13.52
2023-03-29T10:08:28.338Z,13.52
2023-03-29T10:11:09.609Z,13.51
2023-03-29T10:13:47.310Z,13.52
2023-03-29T10:16:23.672Z,13.48
2023-03-29T10:18:56.497Z,13.48
2023-03-29T10:21:30.437Z,13.50
2023-03-29T10:24:03.162Z,13.48
2023-03-29T10:26:39.042Z,13.51
2023-03-29T10:29:13.820Z,13.53
2023-03-29T10:31:50.186Z,13.60
2023-03-29T10:34:27.956Z,13.63
2023-03-29T10:37:02.309Z,13.68
2023-03-29T10:39:35.730Z,13.62
2023-03-29T10:42:14.599Z,13.67
2023-03-29T10:44:55.209Z,13.71
2023-03-29T10:47:34.392Z,13.79
2023-03-29T10:50:12.777Z,13.89
2023-03-29T10:52:45.566Z,13.85
2023-03-29T10:55:19.496Z,13.93
2023-03-29T10:58:04.726Z,14.02
2023-03-29T11:00:44.752Z,13.99
2023-03-29T11:03:28.320Z,13.98
2023-03-29T11:06:14.123Z,14.04
2023-03-29T11:08:55.413Z,14.09
2023-03-29T11:11:45.384Z,14.05
2023-03-29T11:14:28.983Z,14.13
2023-03-29T11:17:18.887Z,14.02
2023-03-29T11:20:10.574Z,14.15
2023-03-29T11:22:50.319Z,14.10
2023-03-29T11:25:34.987Z,14.01
2023-03-29T11:28:15.940Z,14.07
2023-03-29T11:30:59.394Z,14.10
2023-03-29T11:33:41.751Z,14.13
2023-03-29T11:36:21.997Z,14.17
2023-03-29T11:39:04.593Z,14.13
2023-03-29T11:41:41.071Z,14.11
2023-03-29T11:44:17.674Z,14.14
2023-03-29T11:46:57.325Z,14.25
2023-03-29T11:49:34.891Z,14.44
2023-03-29T11:52:12.695Z,14.49
2023-03-29T11:54:51.579Z,14.57
2023-03-29T11:57:28.935Z,14.54
2023-03-29T12:00:06.176Z,14.65
2023-03-29T12:02:49.248Z,14.73
2023-03-29T12:05:25.824Z,14.74
2023-03-29T12:08:06.194Z,14.73
2023-03-29T12:10:43.804Z,14.86
2023-03-29T12:13:22.476Z,14.84
2023-03-29T12:16:00.934Z,14.91
2023-03-29T12:18:39.421Z,14.93
2023-03-29T12:21:15.364Z,14.98
2023-03-29T12:23:51.955Z,15.08
2023-03-29T12:26:41.301Z,15.01
2023-03-29T12:29:35.726Z,14.98
2023-03-29T12:32:29.389Z,14.99
2023-03-29T12:35:23.750Z,15.15
2023-03-29T12:38:24.557Z,15.35
2023-03-29T12:41:20.321Z,15.46
2023-03-29T12:44:06.858Z,15.55
2023-03-29T12:46:55.656Z,15.60
2023-03-29T12:49:32.505Z,15.71
2023-03-29T12:52:26.973Z,15.90
2023-03-29T12:55:01.719Z,16.02
2023-03-29T12:57:43.341Z,16.09
2023-03-29T13:00:23.836Z,15.95
2023-03-29T13:03:06.936Z,16.01
2023-03-29T13:05:39.673Z,16.15
2023-03-29T13:08:23.291Z,16.15
2023-03-29T13:10:57.808Z,16.20
2023-03-29T13:13:36.215Z,16.30
2023-03-29T13:16:15.802Z,16.34
2023-03-29T13:18:58.836Z,16.26
2023-03-29T13:21:41.850Z,16.13
2023-03-29T13:24:31.681Z,16.22
2023-03-29T13:27:11.272Z,16.41
2023-03-29T13:30:07.243Z,16.39
2023-03-29T13:32:52.497Z,16.35
2023-03-29T13:35:37.617Z,16.22
2023-03-29T13:38:20.258Z,16.37
2023-03-29T13:41:01.494Z,16.48
2023-03-29T13:43:37.694Z,16.40
2023-03-29T13:46:40.761Z,16.43
2023-03-29T13:49:19.801Z,16.44
2023-03-29T13:52:07.104Z,16.47
2023-03-29T13:54:44.359Z,16.55
2023-03-29T13:57:24.172Z,16.62
2023-03-29T14:00:00.651Z,16.62
2023-03-29T14:02:43.016Z,16.58
2023-03-29T14:05:18.839Z,16.64
2023-03-29T14:07:53.565Z,16.66
2023-03-29T14:10:32.194Z,16.75
2023-03-29T14:13:05.019Z,16.76
2023-03-29T14:15:44.257Z,16.80
2023-03-29T14:18:22.172Z,16.83
2023-03-29T14:20:56.776Z,16.93
2023-03-29T14:23:31.412Z,16.92
2023-03-29T14:26:10.647Z,16.94
2023-03-29T14:28:46.878Z,16.96
2023-03-29T14:31:20.918Z,17.01
2023-03-29T14:33:55.674Z,16.96
2023-03-29T14:36:29.960Z,17.05
2023-03-29T14:39:05.957Z,17.05
2023-03-29T14:41:40.286Z,16.99
2023-03-29T14:44:14.823Z,17.09
2023-03-29T14:46:48.081Z,17.12
2023-03-29T14:49:24.504Z,17.10
2023-03-29T14:51:58.173Z,17.01
2023-03-29T14:54:33.339Z,17.05
2023-03-29T14:57:08.268Z,17.05
2023-03-29T14:59:43.823Z,16.96
2023-03-29T15:02:28.213Z,16.95
2023-03-29T15:05:04.734Z,16.99
2023-03-29T15:07:39.958Z,16.98
2023-03-29T15:10:19.824Z,16.95
2023-03-29T15:12:52.900Z,16.95
2023-03-29T15:15:27.343Z,16.82
2023-03-29T15:18:00.312Z,16.79
2023-03-29T15:20:38.521Z,16.84
2023-03-29T15:23:22.554Z,16.75
2023-03-29T15:25:58.361Z,16.73
2023-03-29T15:28:32.696Z,16.67
2023-03-29T15:31:12.562Z,16.67
2023-03-29T15:33:45.594Z,16.63
2023-03-29T15:36:19.689Z,16.62
2023-03-29T15:38:52.565Z,16.58
2023-03-29T15:41:26.059Z,16.53
2023-03-29T15:43:58.904Z,16.47
2023-03-29T15:46:32.887Z,16.52
2023-03-29T15:49:06.063Z,16.49
2023-03-29T15:51:40.731Z,16.52
2023-03-29T15:54:13.569Z,16.46
2023-03-29T15:56:50.671Z,16.53
2023-03-29T15:59:23.879Z,16.50
2023-03-29T16:01:58.110Z,16.55
2023-03-29T16:04:30.855Z,16.52
2023-03-29T16:07:08.623Z,16.49
2023-03-29T16:09:41.371Z,16.50
2023-03-29T16:12:15.140Z,16.43
2023-03-29T16:14:47.865Z,16.43
2023-03-29T16:17:20.726Z,16.37
2023-03-29T16:19:53.434Z,16.49
2023-03-29T16:22:29.348Z,16.47
2023-03-29T16:25:05.039Z,16.45
2023-03-29T16:27:37.965Z,16.42
2023-03-29T16:30:12.685Z,16.42
2023-03-29T16:32:45.778Z,16.39
2023-03-29T16:35:25.651Z,16.40
2023-03-29T16:38:00.185Z,16.38
2023-03-29T16:40:34.312Z,16.40
2023-03-29T16:43:07.647Z,16.13
2023-03-29T16:45:43.549Z,16.02
2023-03-29T16:48:18.425Z,15.81
2023-03-29T16:50:51.503Z,16.07
2023-03-29T16:53:27.028Z,16.09
2023-03-29T16:55:59.860Z,15.95
2023-03-29T16:58:32.934Z,15.99
2023-03-29T17:01:10.785Z,15.92
2023-03-29T17:03:44.642Z,15.84
2023-03-29T17:06:17.316Z,15.92
2023-03-29T17:08:51.660Z,15.99
2023-03-29T17:11:24.538Z,16.04
2023-03-29T17:13:57.433Z,16.10
2023-03-29T17:16:30.547Z,15.94
2023-03-29T17:19:03.317Z,15.97
2023-03-29T17:21:35.998Z,16.05
2023-03-29T17:24:10.932Z,16.00
2023-03-29T17:26:45.789Z,15.95
2023-03-29T17:29:19.002Z,16.02
2023-03-29T17:31:51.677Z,16.03
2023-03-29T17:34:24.827Z,16.06
2023-03-29T17:37:00.141Z,15.90
2023-03-29T17:39:37.533Z,16.00
2023-03-29T17:42:10.401Z,16.01
2023-03-29T17:44:43.318Z,16.03
2023-03-29T17:47:16.389Z,15.92
2023-03-29T17:49:49.249Z,15.84
2023-03-29T17:52:22.151Z,15.87
2023-03-29T17:54:58.987Z,15.91
2023-03-29T17:57:31.864Z,15.99
2023-03-29T18:00:05.991Z,15.99
2023-03-29T18:02:38.768Z,15.97
2023-03-29T18:05:11.864Z,15.86
2023-03-29T18:07:44.734Z,15.95
2023-03-29T18:10:19.016Z,15.93
2023-03-29T18:12:51.776Z,15.87
2023-03-29T18:15:24.607Z,15.85
2023-03-29T18:17:57.735Z,15.72
2023-03-29T18:20:30.582Z,15.77
2023-03-29T18:23:03.416Z,15.77
2023-03-29T18:25:38.776Z,15.86
2023-03-29T18:28:11.738Z,15.81
2023-03-29T18:30:44.318Z,15.82
2023-03-29T18:33:17.302Z,15.69
2023-03-29T18:35:51.391Z,15.64
2023-03-29T18:38:24.277Z,15.62
2023-03-29T18:40:58.603Z,15.60
2023-03-29T18:43:33.467Z,15.68
2023-03-29T18:46:06.739Z,15.59
2023-03-29T18:48:41.127Z,15.60
2023-03-29T18:51:14.907Z,15.60
2023-03-29T18:53:47.782Z,15.60
2023-03-29T18:56:24.142Z,15.60
2023-03-29T18:58:56.983Z,15.53
2023-03-29T19:01:29.801Z,15.58
2023-03-29T19:04:02.677Z,15.53
2023-03-29T19:06:35.841Z,15.47
2023-03-29T19:09:08.670Z,15.58
2023-03-29T19:11:43.542Z,15.55
2023-03-29T19:14:17.469Z,15.57
2023-03-29T19:16:51.407Z,15.43
2023-03-29T19:19:26.292Z,15.48
2023-03-29T19:22:00.572Z,15.46
2023-03-29T19:24:33.696Z,15.47
2023-03-29T19:27:09.647Z,15.42
2023-03-29T19:29:43.483Z,15.39
2023-03-29T19:32:16.335Z,15.41
2023-03-29T19:34:49.266Z,15.44
2023-03-29T19:37:21.897Z,15.43
2023-03-29T19:39:57.078Z,15.35
2023-03-29T19:42:31.284Z,15.39
2023-03-29T19:45:05.222Z,15.43
2023-03-29T19:47:38.162Z,15.44
2023-03-29T19:50:12.276Z,15.35
2023-03-29T19:52:45.170Z,15.34
2023-03-29T19:55:18.767Z,15.32
2023-03-29T19:57:52.926Z,15.37
2023-03-29T20:00:25.797Z,15.41
2023-03-29T20:02:58.557Z,15.33
2023-03-29T20:05:31.476Z,15.26
2023-03-29T20:08:04.220Z,15.37
2023-03-29T20:10:37.373Z,15.36
2023-03-29T20:13:12.084Z,15.40
2023-03-29T20:15:47.202Z,15.39
2023-03-29T20:18:20.654Z,15.39
2023-03-29T20:20:53.825Z,15.41
2023-03-29T20:23:30.161Z,15.35
2023-03-29T20:26:07.518Z,15.32
2023-03-29T20:28:42.049Z,15.35
2023-03-29T20:31:14.777Z,15.24
2023-03-29T20:33:47.631Z,15.24
2023-03-29T20:36:22.923Z,15.27
2023-03-29T20:38:56.210Z,15.20
2023-03-29T20:41:29.222Z,15.16
2023-03-29T20:44:03.911Z,15.32
2023-03-29T20:46:38.098Z,15.18
2023-03-29T20:49:10.890Z,15.17
2023-03-29T20:51:43.780Z,15.24
2023-03-29T20:54:18.228Z,15.20
2023-03-29T20:56:51.097Z,15.23
2023-03-29T20:59:25.299Z,15.16
2023-03-29T21:01:58.351Z,15.09
2023-03-29T21:04:31.321Z,15.13
2023-03-29T21:07:05.100Z,15.11
2023-03-29T21:09:37.998Z,15.06
2023-03-29T21:12:11.304Z,15.07
2023-03-29T21:14:47.335Z,15.01
2023-03-29T21:17:20.024Z,15.05
2023-03-29T21:19:53.189Z,15.02
2023-03-29T21:22:25.925Z,14.99
2023-03-29T21:24:58.637Z,15.00
2023-03-29T21:27:31.285Z,15.00
2023-03-29T21:30:07.894Z,15.04
2023-03-29T21:32:40.986Z,14.98
2023-03-29T21:35:14.054Z,14.99
2023-03-29T21:37:46.568Z,15.04
2023-03-29T21:40:19.439Z,15.07
2023-03-29T21:42:52.133Z,15.03
2023-03-29T21:45:26.294Z,15.09
2023-03-29T21:47:59.396Z,15.02
2023-03-29T21:50:33.884Z,15.00
2023-03-29T21:53:06.793Z,15.09
2023-03-29T21:55:39.519Z,15.05
2023-03-29T21:58:12.340Z,15.07
2023-03-29T22:00:47.222Z,15.11
2023-03-29T22:03:22.916Z,15.04
2023-03-29T22:05:57.223Z,15.04
2023-03-29T22:08:30.699Z,15.06
2023-03-29T22:11:08.155Z,15.03
2023-03-29T22:13:42.048Z,15.01
2023-03-29T22:16:18.361Z,14.99
2023-03-29T22:18:52.509Z,15.07
2023-03-29T22:21:26.950Z,15.03
2023-03-29T22:24:01.565Z,14.98
2023-03-29T22:26:34.325Z,15.08
2023-03-29T22:29:07.157Z,15.03
2023-03-29T22:31:41.316Z,14.93
2023-03-29T22:34:14.021Z,14.87
2023-03-29T22:36:46.709Z,14.98
2023-03-29T22:39:19.565Z,14.83
2023-03-29T22:41:52.128Z,14.80
2023-03-29T22:44:24.813Z,14.85
2023-03-29T22:46:58.837Z,14.90
2023-03-29T22:49:31.681Z,14.89
2023-03-29T22:52:04.829Z,14.89
2023-03-29T22:54:37.600Z,14.84
2023-03-29T22:57:10.410Z,14.87
2023-03-29T22:59:43.263Z,14.91
2023-03-29T23:02:17.368Z,14.83
2023-03-29T23:04:50.165Z,14.81
2023-03-29T23:07:23.042Z,14.83
2023-03-29T23:09:55.716Z,14.85
2023-03-29T23:12:28.393Z,14.83
2023-03-29T23:15:01.512Z,14.72
2023-03-29T23:17:35.736Z,14.90
2023-03-29T23:20:11.163Z,14.82
2023-03-29T23:22:44.060Z,14.83
2023-03-29T23:25:16.880Z,14.84
2023-03-29T23:27:49.559Z,14.81
2023-03-29T23:30:22.589Z,14.83
2023-03-29T23:32:58.077Z,14.89
2023-03-29T23:35:32.108Z,14.83
2023-03-29T23:38:05.513Z,14.89
2023-03-29T23:40:38.245Z,14.78
2023-03-29T23:43:11.099Z,14.79
2023-03-29T23:45:43.798Z,14.83
2023-03-29T23:48:20.223Z,14.74
2023-03-29T23:50:53.217Z,14.83
2023-03-29T23:53:28.886Z,14.87
2023-03-29T23:56:05.401Z,14.84
2023-03-29T23:58:39.167Z,14.87
